Time;durP1;ratioP1;P1;durP2;ratioP2;P2;SDS_P1;SDS_P2;PMS_P1;PMS_P2;Temp;Humidity;BMP_temperature;BMP_pressure;BME280_temperature;BME280_humidity;BME280_pressure;Samples;Min_cycle;Max_cycle;Signal;HPM_P1;HPM_P2
2023/11/05 00:01:51;;;;;;;;;;;;;;;;;;4998753;28;20456;-77
2023/11/05 00:04:18;;;;;;;;;;;;;;;;;;5000942;28;19929;-77
2023/11/05 00:06:45;;;;;;;;;;;;;;;;;;5001295;28;19973;-76
2023/11/05 00:09:12;;;;;;;;;;;;;;;;;;4999913;28;19930;-76
2023/11/05 00:11:39;;;;;;;;;;;;;;;;;;5000744;28;19933;-77
2023/11/05 00:14:06;;;;;;;;;;;;;;;;;;4998986;28;20274;-78
2023/11/05 00:16:33;;;;;;;;;;;;;;;;;;5000126;28;19926;-76
2023/11/05 00:19:00;;;;;;;;;;;;;;;;;;5000103;28;19930;-76
2023/11/05 00:21:26;;;;;;;;;;;;;;;;;;4995299;28;19969;-77
2023/11/05 00:23:53;;;;;;;;;;;;;;;;;;5005086;28;19932;-77
2023/11/05 00:26:20;;;;;;;;;;;;;;;;;;4999282;28;19926;-77
2023/11/05 00:28:47;;;;;;;;;;;;;;;;;;4996216;28;19930;-79
2023/11/05 00:31:14;;;;;;;;;;;;;;;;;;4999325;28;20380;-79
2023/11/05 00:33:41;;;;;;;;;;;;;;;;;;5000080;28;19932;-78
2023/11/05 00:36:08;;;;;;;;;;;;;;;;;;4997984;28;19953;-77
2023/11/05 00:38:35;;;;;;;;;;;;;;;;;;4993188;28;20353;-78
2023/11/05 00:41:02;;;;;;;;;;;;;;;;;;5000235;28;19989;-77
2023/11/05 00:43:30;;;;;;;;;;;;;;;;;;4999431;28;19953;-78
2023/11/05 00:45:57;;;;;;;;;;;;;;;;;;4987848;28;19974;-78
2023/11/05 00:48:24;;;;;;;;;;;;;;;;;;4988805;28;20024;-78
2023/11/05 00:50:51;;;;;;;;;;;;;;;;;;4998770;28;19932;-78
2023/11/05 00:53:18;;;;;;;;;;;;;;;;;;4999594;28;19930;-77
2023/11/05 00:55:45;;;;;;;;;;;;;;;;;;4998802;28;19929;-76
2023/11/05 00:58:12;;;;;;;;;;;;;;;;;;4999501;28;19926;-76
2023/11/05 01:00:39;;;;;;;;;;;;;;;;;;4998072;28;19926;-75
2023/11/05 01:03:06;;;;;;;;;;;;;;;;;;4998093;28;20355;-76
2023/11/05 01:05:34;;;;;;;;;;;;;;;;;;4999681;28;19926;-75
2023/11/05 01:08:01;;;;;;;;;;;;;;;;;;4999620;28;20301;-76
2023/11/05 01:10:28;;;;;;;;;;;;;;;;;;4997136;28;20032;-75
2023/11/05 01:12:55;;;;;;;;;;;;;;;;;;4997844;28;19960;-75
2023/11/05 01:15:22;;;;;;;;;;;;;;;;;;4997431;28;19932;-75
2023/11/05 01:17:49;;;;;;;;;;;;;;;;;;4998454;28;19926;-76
2023/11/05 01:20:16;;;;;;;;;;;;;;;;;;4997843;28;20032;-75
2023/11/05 01:22:43;;;;;;;;;;;;;;;;;;4996861;28;19929;-75
2023/11/05 01:25:10;;;;;;;;;;;;;;;;;;4997202;28;20024;-76
2023/11/05 01:27:37;;;;;;;;;;;;;;;;;;4996540;28;20385;-75
2023/11/05 01:30:04;;;;;;;;;;;;;;;;;;4993277;28;20000;-77
2023/11/05 01:32:31;;;;;;;;;;;;;;;;;;4997680;28;19936;-77
2023/11/05 01:34:59;;;;;;;;;;;;;;;;;;4999250;28;19937;-77
2023/11/05 01:37:26;;;;;;;;;;;;;;;;;;4994041;28;19989;-76
2023/11/05 01:39:53;;;;;;;;;;;;;;;;;;4998470;28;19926;-76
2023/11/05 01:42:20;;;;;;;;;;;;;;;;;;4997736;28;19992;-76
2023/11/05 01:44:47;;;;;;;;;;;;;;;;;;4998696;28;19980;-77
2023/11/05 01:47:14;;;;;;;;;;;;;;;;;;4997633;28;20009;-74
2023/11/05 01:49:41;;;;;;;;;;;;;;;;;;4999747;28;19926;-76
2023/11/05 01:52:08;;;;;;;;;;;;;;;;;;4996132;28;20324;-76
2023/11/05 01:54:35;;;;;;;;;;;;;;;;;;4996763;28;20325;-77
2023/11/05 01:57:02;;;;;;;;;;;;;;;;;;4997890;28;19988;-77
2023/11/05 01:59:29;;;;;;;;;;;;;;;;;;4997907;28;19926;-78
2023/11/05 02:01:56;;;;;;;;;;;;;;;;;;4996479;28;19949;-77
2023/11/05 02:04:23;;;;;;;;;;;;;;;;;;4997793;28;19925;-76
2023/11/05 02:06:50;;;;;;;;;;;;;;;;;;5014084;28;19926;-77
2023/11/05 02:09:17;;;;;;;;;;;;;;;;;;5005922;28;19926;-76
2023/11/05 02:11:44;;;;;;;;;;;;;;;;;;4997115;28;19965;-75
2023/11/05 02:14:11;;;;;;;;;;;;;;;;;;4996666;28;19972;-75
2023/11/05 02:16:38;;;;;;;;;;;;;;;;;;4995340;28;19934;-75
2023/11/05 02:19:06;;;;;;;;;;;;;;;;;;4997503;28;19936;-76
2023/11/05 02:21:33;;;;;;;;;;;;;;;;;;4996290;28;20013;-76
2023/11/05 02:24:00;;;;;;;;;;;;;;;;;;4997298;28;19926;-76
2023/11/05 02:26:27;;;;;;;;;;;;;;;;;;4996472;28;19933;-75
2023/11/05 02:28:54;;;;;;;;;;;;;;;;;;4996720;28;20551;-76
2023/11/05 02:31:21;;;;;;;;;;;;;;;;;;4996375;28;19933;-76
2023/11/05 02:33:48;;;;;;;;;;;;;;;;;;4994924;28;19984;-76
2023/11/05 02:36:15;;;;;;;;;;;;;;;;;;4982765;28;19926;-76
2023/11/05 02:38:42;;;;;;;;;;;;;;;;;;4995688;28;19932;-75
2023/11/05 02:41:11;;;;;;;;;;;;;;;;;;5015397;28;20422;-76
2023/11/05 02:43:38;;;;;;;;;;;;;;;;;;5005288;28;19984;-75
2023/11/05 02:46:05;;;;;;;;;;;;;;;;;;4991924;28;19930;-76
2023/11/05 02:48:32;;;;;;;;;;;;;;;;;;4995249;28;19926;-75
2023/11/05 02:50:59;;;;;;;;;;;;;;;;;;4994590;28;20379;-76
2023/11/05 02:53:26;;;;;;;;;;;;;;;;;;4994940;28;19926;-76
2023/11/05 02:55:53;;;;;;;;;;;;;;;;;;4996005;28;19949;-76
2023/11/05 02:58:20;;;;;;;;;;;;;;;;;;5013160;28;20032;-76
2023/11/05 03:00:47;;;;;;;;;;;;;;;;;;4994771;28;20010;-75
2023/11/05 03:03:14;;;;;;;;;;;;;;;;;;4995721;28;19981;-75
2023/11/05 03:05:41;;;;;;;;;;;;;;;;;;4992442;28;19925;-75
2023/11/05 03:08:08;;;;;;;;;;;;;;;;;;4994613;28;20009;-75
2023/11/05 03:10:35;;;;;;;;;;;;;;;;;;4996058;28;19944;-75
2023/11/05 03:13:03;;;;;;;;;;;;;;;;;;4998900;28;19926;-77
2023/11/05 03:15:30;;;;;;;;;;;;;;;;;;4994280;28;19930;-76
2023/11/05 03:17:57;;;;;;;;;;;;;;;;;;4995631;28;20300;-77
2023/11/05 03:20:24;;;;;;;;;;;;;;;;;;4997722;28;20013;-76
2023/11/05 03:22:51;;;;;;;;;;;;;;;;;;4997991;28;20086;-76
2023/11/05 03:25:18;;;;;;;;;;;;;;;;;;4996470;28;19976;-76
2023/11/05 03:27:45;;;;;;;;;;;;;;;;;;4991459;28;20464;-76
2023/11/05 03:30:12;;;;;;;;;;;;;;;;;;4995816;28;19930;-76
2023/11/05 03:32:40;;;;;;;;;;;;;;;;;;4996730;28;19999;-76
2023/11/05 03:35:09;;;;;;;;;;;;;;;;;;4994544;28;19941;-76
2023/11/05 03:37:36;;;;;;;;;;;;;;;;;;4993342;28;19932;-76
2023/11/05 03:40:03;;;;;;;;;;;;;;;;;;4995220;28;19949;-75
2023/11/05 03:42:31;;;;;;;;;;;;;;;;;;4995290;28;19937;-76
2023/11/05 03:44:58;;;;;;;;;;;;;;;;;;4992812;28;20340;-76
2023/11/05 03:47:25;;;;;;;;;;;;;;;;;;4995783;28;19926;-76
2023/11/05 03:49:53;;;;;;;;;;;;;;;;;;4996992;28;20265;-75
2023/11/05 03:52:20;;;;;;;;;;;;;;;;;;4995585;28;19933;-76
2023/11/05 03:54:47;;;;;;;;;;;;;;;;;;4994969;28;19926;-75
2023/11/05 03:57:14;;;;;;;;;;;;;;;;;;4996779;28;19926;-76
2023/11/05 03:59:41;;;;;;;;;;;;;;;;;;4999195;28;19968;-76
2023/11/05 04:02:08;;;;;;;;;;;;;;;;;;4999988;28;19932;-76
2023/11/05 04:04:35;;;;;;;;;;;;;;;;;;4999962;28;19926;-77
2023/11/05 04:07:05;;;;;;;;;;;;;;;;;;5000544;28;20353;-76
2023/11/05 04:09:32;;;;;;;;;;;;;;;;;;4997231;28;20005;-76
2023/11/05 04:11:59;;;;;;;;;;;;;;;;;;4984173;28;20021;-76
2023/11/05 04:14:26;;;;;;;;;;;;;;;;;;4984529;28;19994;-76
2023/11/05 04:16:53;;;;;;;;;;;;;;;;;;4979796;28;19926;-76
2023/11/05 04:19:20;;;;;;;;;;;;;;;;;;4988126;28;19926;-77
2023/11/05 04:21:47;;;;;;;;;;;;;;;;;;5002513;28;20452;-77
2023/11/05 04:24:14;;;;;;;;;;;;;;;;;;4999128;28;19976;-76
2023/11/05 04:26:41;;;;;;;;;;;;;;;;;;4998172;28;19926;-75
2023/11/05 04:29:08;;;;;;;;;;;;;;;;;;4998532;28;20004;-76
2023/11/05 04:31:35;;;;;;;;;;;;;;;;;;4997014;28;20378;-76
2023/11/05 04:34:04;;;;;;;;;;;;;;;;;;4998928;28;19930;-75
2023/11/05 04:36:31;;;;;;;;;;;;;;;;;;4998532;28;19926;-76
2023/11/05 04:38:58;;;;;;;;;;;;;;;;;;4992843;28;19930;-75
2023/11/05 04:41:25;;;;;;;;;;;;;;;;;;4993161;28;19926;-75
2023/11/05 04:43:52;;;;;;;;;;;;;;;;;;4996507;28;19930;-75
2023/11/05 04:46:19;;;;;;;;;;;;;;;;;;4995823;28;19929;-75
2023/11/05 04:48:46;;;;;;;;;;;;;;;;;;4998305;28;19964;-76
2023/11/05 04:51:13;;;;;;;;;;;;;;;;;;4997287;28;19930;-76
2023/11/05 04:53:40;;;;;;;;;;;;;;;;;;4997660;28;19969;-78
2023/11/05 04:56:07;;;;;;;;;;;;;;;;;;5008473;28;19929;-75
2023/11/05 04:58:34;;;;;;;;;;;;;;;;;;4997373;28;20402;-77
2023/11/05 05:01:01;;;;;;;;;;;;;;;;;;4995535;28;19961;-73
2023/11/05 05:03:28;;;;;;;;;;;;;;;;;;4992961;28;19926;-73
2023/11/05 05:05:55;;;;;;;;;;;;;;;;;;4993430;28;19926;-73
2023/11/05 05:08:22;;;;;;;;;;;;;;;;;;4993547;28;20013;-74
2023/11/05 05:10:49;;;;;;;;;;;;;;;;;;4992246;28;19936;-73
2023/11/05 05:13:16;;;;;;;;;;;;;;;;;;4993025;28;19972;-73
2023/11/05 05:15:43;;;;;;;;;;;;;;;;;;4992537;28;19965;-74
2023/11/05 05:18:10;;;;;;;;;;;;;;;;;;4993670;28;20016;-74
2023/11/05 05:20:37;;;;;;;;;;;;;;;;;;4992382;28;19926;-74
2023/11/05 05:23:04;;;;;;;;;;;;;;;;;;4993447;28;19961;-74
2023/11/05 05:25:31;;;;;;;;;;;;;;;;;;4992449;28;20019;-74
2023/11/05 05:27:58;;;;;;;;;;;;;;;;;;4993077;28;20008;-73
2023/11/05 05:30:25;;;;;;;;;;;;;;;;;;4993613;28;19926;-74
2023/11/05 05:32:53;;;;;;;;;;;;;;;;;;4993171;28;19977;-74
2023/11/05 05:35:20;;;;;;;;;;;;;;;;;;4990413;28;20289;-74
2023/11/05 05:37:47;;;;;;;;;;;;;;;;;;4994248;28;19980;-73
2023/11/05 05:40:14;;;;;;;;;;;;;;;;;;4993824;28;20404;-74
2023/11/05 05:42:41;;;;;;;;;;;;;;;;;;4991657;28;20341;-74
2023/11/05 05:45:08;;;;;;;;;;;;;;;;;;4994233;28;20012;-74
2023/11/05 05:47:35;;;;;;;;;;;;;;;;;;4993920;28;20025;-74
2023/11/05 05:50:03;;;;;;;;;;;;;;;;;;4992859;28;19933;-73
2023/11/05 05:52:30;;;;;;;;;;;;;;;;;;4992253;28;19936;-73
2023/11/05 05:54:57;;;;;;;;;;;;;;;;;;4992686;28;19933;-73
2023/11/05 05:57:24;;;;;;;;;;;;;;;;;;4994601;28;19932;-75
2023/11/05 05:59:52;;;;;;;;;;;;;;;;;;4992705;28;19955;-73
2023/11/05 06:02:20;;;;;;;;;;;;;;;;;;4993063;28;19926;-74
2023/11/05 06:04:47;;;;;;;;;;;;;;;;;;4994424;28;20013;-73
2023/11/05 06:07:14;;;;;;;;;;;;;;;;;;4974967;28;20377;-74
2023/11/05 06:09:42;;;;;;;;;;;;;;;;;;4985768;28;19980;-74
2023/11/05 06:12:09;;;;;;;;;;;;;;;;;;4992884;28;19932;-75
2023/11/05 06:14:36;;;;;;;;;;;;;;;;;;4992245;28;20005;-74
2023/11/05 06:17:03;;;;;;;;;;;;;;;;;;4993833;28;19925;-73
2023/11/05 06:19:30;;;;;;;;;;;;;;;;;;4988703;28;20035;-74
2023/11/05 06:21:57;;;;;;;;;;;;;;;;;;5011334;28;19976;-73
2023/11/05 06:24:24;;;;;;;;;;;;;;;;;;4998255;28;19979;-73
2023/11/05 06:26:51;;;;;;;;;;;;;;;;;;4989503;28;20424;-73
2023/11/05 06:29:18;;;;;;;;;;;;;;;;;;4987711;28;19981;-73
2023/11/05 06:31:45;;;;;;;;;;;;;;;;;;4987504;28;20467;-74
2023/11/05 06:34:12;;;;;;;;;;;;;;;;;;4991651;28;20005;-74
2023/11/05 06:36:39;;;;;;;;;;;;;;;;;;4993093;28;19941;-74
2023/11/05 06:39:06;;;;;;;;;;;;;;;;;;5006967;28;20014;-74
2023/11/05 06:41:33;;;;;;;;;;;;;;;;;;4991716;28;19990;-73
2023/11/05 06:44:00;;;;;;;;;;;;;;;;;;4990748;28;19976;-73
2023/11/05 06:46:28;;;;;;;;;;;;;;;;;;4992360;28;19981;-73
2023/11/05 06:48:55;;;;;;;;;;;;;;;;;;4993229;28;20024;-73
2023/11/05 06:51:22;;;;;;;;;;;;;;;;;;4992284;28;19929;-73
2023/11/05 06:53:49;;;;;;;;;;;;;;;;;;4991333;28;20399;-73
2023/11/05 06:56:16;;;;;;;;;;;;;;;;;;4989767;28;19926;-72
2023/11/05 06:58:43;;;;;;;;;;;;;;;;;;4993677;28;20400;-73
2023/11/05 07:01:10;;;;;;;;;;;;;;;;;;4996643;28;19929;-74
2023/11/05 07:03:37;;;;;;;;;;;;;;;;;;4992516;28;19933;-73
2023/11/05 07:06:04;;;;;;;;;;;;;;;;;;4990624;28;20013;-73
2023/11/05 07:08:31;;;;;;;;;;;;;;;;;;4992270;28;19965;-74
2023/11/05 07:10:58;;;;;;;;;;;;;;;;;;4990453;28;20278;-74
2023/11/05 07:13:25;;;;;;;;;;;;;;;;;;4988732;28;19988;-74
2023/11/05 07:15:52;;;;;;;;;;;;;;;;;;4992607;28;19933;-74
2023/11/05 07:18:19;;;;;;;;;;;;;;;;;;4992521;28;20004;-73
2023/11/05 07:20:46;;;;;;;;;;;;;;;;;;4991921;28;20008;-74
2023/11/05 07:23:14;;;;;;;;;;;;;;;;;;4991376;28;20017;-74
2023/11/05 07:25:41;;;;;;;;;;;;;;;;;;4988708;28;19980;-74
2023/11/05 07:28:08;;;;;;;;;;;;;;;;;;4984458;28;19929;-73
2023/11/05 07:30:35;;;;;;;;;;;;;;;;;;4983686;28;19930;-74
2023/11/05 07:33:05;;;;;;;;;;;;;;;;;;4986683;28;20012;-72
2023/11/05 07:35:32;;;;;;;;;;;;;;;;;;4990359;28;19926;-71
2023/11/05 07:37:59;;;;;;;;;;;;;;;;;;4994641;28;20013;-71
2023/11/05 07:40:25;;;;;;;;;;;;;;;;;;4987876;28;20421;-71
2023/11/05 07:42:52;;;;;;;;;;;;;;;;;;4990409;28;20376;-72
2023/11/05 07:45:19;;;;;;;;;;;;;;;;;;4990436;28;19926;-71
2023/11/05 07:47:46;;;;;;;;;;;;;;;;;;4993022;28;20012;-71
2023/11/05 07:50:13;;;;;;;;;;;;;;;;;;4991408;28;19969;-71
2023/11/05 07:52:42;;;;;;;;;;;;;;;;;;4988328;28;20285;-71
2023/11/05 07:55:09;;;;;;;;;;;;;;;;;;4985415;28;20439;-71
2023/11/05 07:57:36;;;;;;;;;;;;;;;;;;4987650;28;19926;-71
2023/11/05 08:00:07;;;;;;;;;;;;;;;;;;4988964;28;20325;-72
2023/11/05 08:02:34;;;;;;;;;;;;;;;;;;4982670;28;19933;-73
2023/11/05 08:05:01;;;;;;;;;;;;;;;;;;4986628;28;19933;-74
2023/11/05 08:07:29;;;;;;;;;;;;;;;;;;4987462;28;19980;-74
2023/11/05 08:09:56;;;;;;;;;;;;;;;;;;4988543;28;20455;-73
2023/11/05 08:12:24;;;;;;;;;;;;;;;;;;4990857;28;19933;-76
2023/11/05 08:14:51;;;;;;;;;;;;;;;;;;4990146;28;19988;-76
2023/11/05 08:17:18;;;;;;;;;;;;;;;;;;4986435;28;20383;-77
2023/11/05 08:19:45;;;;;;;;;;;;;;;;;;4987752;28;19929;-74
2023/11/05 08:22:12;;;;;;;;;;;;;;;;;;4985358;28;19933;-74
2023/11/05 08:24:39;;;;;;;;;;;;;;;;;;4984597;28;20032;-73
2023/11/05 08:27:07;;;;;;;;;;;;;;;;;;4983472;28;19944;-73
2023/11/05 08:29:34;;;;;;;;;;;;;;;;;;4985337;28;19926;-73
2023/11/05 08:32:06;;;;;;;;;;;;;;;;;;4984875;28;19933;-74
2023/11/05 08:34:33;;;;;;;;;;;;;;;;;;4981330;28;19991;-73
2023/11/05 08:37:01;;;;;;;;;;;;;;;;;;4979950;28;19930;-73
2023/11/05 08:39:30;;;;;;;;;;;;;;;;;;4980422;28;19934;-74
2023/11/05 08:41:58;;;;;;;;;;;;;;;;;;4984941;28;19930;-74
2023/11/05 08:44:25;;;;;;;;;;;;;;;;;;4985284;28;19934;-73
2023/11/05 08:46:52;;;;;;;;;;;;;;;;;;4981988;28;20008;-73
2023/11/05 08:49:20;;;;;;;;;;;;;;;;;;4988077;28;19987;-73
2023/11/05 08:51:47;;;;;;;;;;;;;;;;;;4978765;28;19985;-73
2023/11/05 08:54:14;;;;;;;;;;;;;;;;;;4990378;28;19949;-74
2023/11/05 08:56:41;;;;;;;;;;;;;;;;;;4985569;28;19938;-74
2023/11/05 08:59:08;;;;;;;;;;;;;;;;;;4982190;28;19988;-74
2023/11/05 09:01:35;;;;;;;;;;;;;;;;;;4983421;28;19932;-74
2023/11/05 09:04:04;;;;;;;;;;;;;;;;;;4982451;28;19926;-73
2023/11/05 09:06:31;;;;;;;;;;;;;;;;;;4980814;28;19930;-74
2023/11/05 09:08:58;;;;;;;;;;;;;;;;;;4983064;28;20347;-72
2023/11/05 09:11:25;;;;;;;;;;;;;;;;;;4986672;28;19937;-73
2023/11/05 09:13:52;;;;;;;;;;;;;;;;;;4982555;28;19929;-73
2023/11/05 09:16:19;;;;;;;;;;;;;;;;;;4975503;28;19977;-72
2023/11/05 09:18:46;;;;;;;;;;;;;;;;;;4980233;28;19934;-72
2023/11/05 09:21:13;;;;;;;;;;;;;;;;;;4983128;28;20806;-74
2023/11/05 09:23:40;;;;;;;;;;;;;;;;;;4982507;28;20008;-74
2023/11/05 09:26:07;;;;;;;;;;;;;;;;;;4983291;28;20739;-75
2023/11/05 09:28:34;;;;;;;;;;;;;;;;;;4982745;28;19933;-75
2023/11/05 09:31:02;;;;;;;;;;;;;;;;;;4984134;28;19930;-73
2023/11/05 09:33:29;;;;;;;;;;;;;;;;;;4983638;28;19925;-74
2023/11/05 09:35:57;;;;;;;;;;;;;;;;;;4989186;28;19926;-83
2023/11/05 09:38:24;;;;;;;;;;;;;;;;;;4994647;28;19953;-83
2023/11/05 09:40:52;;;;;;;;;;;;;;;;;;4991324;28;19972;-82
2023/11/05 09:43:19;;;;;;;;;;;;;;;;;;4988504;28;19926;-83
2023/11/05 09:45:46;;;;;;;;;;;;;;;;;;4996005;28;19965;-84
2023/11/05 09:48:13;;;;;;;;;;;;;;;;;;4995518;28;20385;-81
2023/11/05 09:50:40;;;;;;;;;;;;;;;;;;4990604;28;20008;-81
2023/11/05 09:53:07;;;;;;;;;;;;;;;;;;4989562;28;20044;-81
2023/11/05 09:55:34;;;;;;;;;;;;;;;;;;4987664;28;20075;-77
2023/11/05 09:58:01;;;;;;;;;;;;;;;;;;4992111;28;19987;-77
2023/11/05 10:00:30;;;;;;;;;;;;;;;;;;4987970;28;19961;-78
2023/11/05 10:02:57;;;;;;;;;;;;;;;;;;4995040;28;19926;-79
2023/11/05 10:05:24;;;;;;;;;;;;;;;;;;4989763;28;19956;-81
2023/11/05 10:07:51;;;;;;;;;;;;;;;;;;4990832;28;20423;-79
2023/11/05 10:10:18;;;;;;;;;;;;;;;;;;4988447;28;19925;-80
2023/11/05 10:12:45;;;;;;;;;;;;;;;;;;4989412;28;19965;-80
2023/11/05 10:15:12;;;;;;;;;;;;;;;;;;4982704;28;20398;-77
2023/11/05 10:17:39;;;;;;;;;;;;;;;;;;4985672;28;21514;-77
2023/11/05 10:20:06;;;;;;;;;;;;;;;;;;4981543;28;19974;-80
2023/11/05 10:22:34;;;;;;;;;;;;;;;;;;4987524;28;19926;-82
2023/11/05 10:25:06;;;;;;;;;;;;;;;;;;4981114;28;19980;-80
2023/11/05 10:27:35;;;;;;;;;;;;;;;;;;4983555;28;20308;-78
2023/11/05 10:30:04;;;;;;;;;;;;;;;;;;4989467;28;19941;-81
2023/11/05 10:32:31;;;;;;;;;;;;;;;;;;4986350;28;19926;-75
2023/11/05 10:34:58;;;;;;;;;;;;;;;;;;4984955;28;19933;-74
2023/11/05 10:37:26;;;;;;;;;;;;;;;;;;4978886;28;19940;-75
2023/11/05 10:39:53;;;;;;;;;;;;;;;;;;4981890;28;19925;-74
2023/11/05 10:42:21;;;;;;;;;;;;;;;;;;4984666;28;20010;-74
2023/11/05 10:44:48;;;;;;;;;;;;;;;;;;4990175;28;19957;-75
2023/11/05 10:47:15;;;;;;;;;;;;;;;;;;4988107;28;20024;-74
2023/11/05 10:49:42;;;;;;;;;;;;;;;;;;4982309;28;19951;-74
2023/11/05 10:52:09;;;;;;;;;;;;;;;;;;4988010;28;20020;-74
2023/11/05 10:54:37;;;;;;;;;;;;;;;;;;4990096;28;20007;-74
2023/11/05 10:57:06;;;;;;;;;;;;;;;;;;4990955;28;19933;-74
2023/11/05 10:59:33;;;;;;;;;;;;;;;;;;4999178;28;19976;-75
2023/11/05 11:02:00;;;;;;;;;;;;;;;;;;4998960;28;19988;-74
2023/11/05 11:04:27;;;;;;;;;;;;;;;;;;4995286;28;20359;-75
2023/11/05 11:06:54;;;;;;;;;;;;;;;;;;4994699;28;19997;-76
2023/11/05 11:09:22;;;;;;;;;;;;;;;;;;4998101;28;20004;-76
2023/11/05 11:11:48;;;;;;;;;;;;;;;;;;4995488;28;20020;-74
2023/11/05 11:14:15;;;;;;;;;;;;;;;;;;4995945;28;20020;-74
2023/11/05 11:16:42;;;;;;;;;;;;;;;;;;4995279;28;20562;-74
2023/11/05 11:19:08;;;;;;;;;;;;;;;;;;5000228;28;19933;-74
2023/11/05 11:21:35;;;;;;;;;;;;;;;;;;4993651;28;20400;-74
2023/11/05 11:24:02;;;;;;;;;;;;;;;;;;4998356;28;19958;-75
2023/11/05 11:26:32;;;;;;;;;;;;;;;;;;4993442;28;20032;-73
2023/11/05 11:28:58;;;;;;;;;;;;;;;;;;4993752;28;19933;-73
2023/11/05 11:31:25;;;;;;;;;;;;;;;;;;5002207;28;20008;-73
2023/11/05 11:33:53;;;;;;;;;;;;;;;;;;4999830;28;19933;-73
2023/11/05 11:36:20;;;;;;;;;;;;;;;;;;4992194;28;19926;-72
2023/11/05 11:38:47;;;;;;;;;;;;;;;;;;4992611;28;19926;-74
2023/11/05 11:41:14;;;;;;;;;;;;;;;;;;4988493;28;20020;-74
2023/11/05 11:43:41;;;;;;;;;;;;;;;;;;5000748;28;20025;-75
2023/11/05 11:46:08;;;;;;;;;;;;;;;;;;4995371;28;19932;-74
2023/11/05 11:48:35;;;;;;;;;;;;;;;;;;4994116;28;19926;-72
2023/11/05 11:51:03;;;;;;;;;;;;;;;;;;4991671;28;19930;-74
2023/11/05 11:53:30;;;;;;;;;;;;;;;;;;4990181;28;19925;-73
2023/11/05 11:55:57;;;;;;;;;;;;;;;;;;4987675;28;19926;-74
2023/11/05 11:58:24;;;;;;;;;;;;;;;;;;4977604;28;19926;-74
2023/11/05 12:00:51;;;;;;;;;;;;;;;;;;4985871;28;20020;-73
2023/11/05 12:03:18;;;;;;;;;;;;;;;;;;4983050;28;20096;-75
2023/11/05 12:05:46;;;;;;;;;;;;;;;;;;4989648;28;19925;-71
2023/11/05 12:08:13;;;;;;;;;;;;;;;;;;4987883;28;19988;-72
2023/11/05 12:10:40;;;;;;;;;;;;;;;;;;4996798;28;20401;-73
2023/11/05 12:13:07;;;;;;;;;;;;;;;;;;4990140;28;20318;-69
2023/11/05 12:15:34;;;;;;;;;;;;;;;;;;4990729;28;19925;-68
2023/11/05 12:18:01;;;;;;;;;;;;;;;;;;4994172;28;20025;-69
2023/11/05 12:20:28;;;;;;;;;;;;;;;;;;4993884;28;20008;-69
2023/11/05 12:22:55;;;;;;;;;;;;;;;;;;4980734;28;20048;-69
2023/11/05 12:25:22;;;;;;;;;;;;;;;;;;4991578;28;20037;-69
2023/11/05 12:27:50;;;;;;;;;;;;;;;;;;4990664;28;20003;-70
2023/11/05 12:30:18;;;;;;;;;;;;;;;;;;4991468;28;19940;-70
2023/11/05 12:32:45;;;;;;;;;;;;;;;;;;4991258;28;20412;-70
2023/11/05 12:35:15;;;;;;;;;;;;;;;;;;4988428;28;20036;-70
2023/11/05 12:37:42;;;;;;;;;;;;;;;;;;4985472;28;19973;-70
2023/11/05 12:40:09;;;;;;;;;;;;;;;;;;4984491;28;19934;-69
2023/11/05 12:42:37;;;;;;;;;;;;;;;;;;4991009;28;19958;-70
2023/11/05 12:45:04;;;;;;;;;;;;;;;;;;4985607;28;19926;-69
2023/11/05 12:47:31;;;;;;;;;;;;;;;;;;4982746;28;19932;-69
2023/11/05 12:49:58;;;;;;;;;;;;;;;;;;4980597;28;19934;-69
2023/11/05 12:52:25;;;;;;;;;;;;;;;;;;4988375;28;19932;-70
2023/11/05 12:54:53;;;;;;;;;;;;;;;;;;4984220;28;20371;-70
2023/11/05 12:57:20;;;;;;;;;;;;;;;;;;4987762;28;19969;-70
2023/11/05 12:59:47;;;;;;;;;;;;;;;;;;4984754;28;20526;-72
2023/11/05 13:02:14;;;;;;;;;;;;;;;;;;4987956;28;20016;-71
2023/11/05 13:04:41;;;;;;;;;;;;;;;;;;4987969;28;20056;-71
2023/11/05 13:07:08;;;;;;;;;;;;;;;;;;4986551;28;20024;-69
2023/11/05 13:09:35;;;;;;;;;;;;;;;;;;4990307;28;19926;-71
2023/11/05 13:12:04;;;;;;;;;;;;;;;;;;4985946;28;20008;-68
2023/11/05 13:14:31;;;;;;;;;;;;;;;;;;4996992;28;20396;-68
2023/11/05 13:16:58;;;;;;;;;;;;;;;;;;4989353;28;20037;-69
2023/11/05 13:19:25;;;;;;;;;;;;;;;;;;4991478;28;19926;-68
2023/11/05 13:21:52;;;;;;;;;;;;;;;;;;4998580;28;19972;-68
2023/11/05 13:24:19;;;;;;;;;;;;;;;;;;4992674;28;20013;-70
2023/11/05 13:26:46;;;;;;;;;;;;;;;;;;4997451;28;19965;-70
2023/11/05 13:29:13;;;;;;;;;;;;;;;;;;4987963;28;19934;-69
2023/11/05 13:31:41;;;;;;;;;;;;;;;;;;4990166;28;20021;-69
2023/11/05 13:34:08;;;;;;;;;;;;;;;;;;5000542;28;20305;-70
2023/11/05 13:36:35;;;;;;;;;;;;;;;;;;4984608;28;19962;-70
2023/11/05 13:39:04;;;;;;;;;;;;;;;;;;4992481;28;20013;-70
2023/11/05 13:41:31;;;;;;;;;;;;;;;;;;4991161;28;20393;-70
2023/11/05 13:44:02;;;;;;;;;;;;;;;;;;5008658;28;20361;-69
2023/11/05 13:46:30;;;;;;;;;;;;;;;;;;4995188;28;20373;-69
2023/11/05 13:48:57;;;;;;;;;;;;;;;;;;4990698;28;19926;-69
2023/11/05 13:51:24;;;;;;;;;;;;;;;;;;4985054;28;19925;-69
2023/11/05 13:53:53;;;;;;;;;;;;;;;;;;4989902;28;19926;-70
2023/11/05 13:56:20;;;;;;;;;;;;;;;;;;4988299;28;20361;-69
2023/11/05 13:58:47;;;;;;;;;;;;;;;;;;4997388;28;19980;-70
2023/11/05 14:01:17;;;;;;;;;;;;;;;;;;4999235;28;19940;-69
2023/11/05 14:03:44;;;;;;;;;;;;;;;;;;4996608;28;19934;-72
2023/11/05 14:06:11;;;;;;;;;;;;;;;;;;4995038;28;20012;-69
2023/11/05 14:08:38;;;;;;;;;;;;;;;;;;4990676;28;19926;-69
2023/11/05 14:11:07;;;;;;;;;;;;;;;;;;4989062;28;19992;-69
2023/11/05 14:13:38;;;;;;;;;;;;;;;;;;4989423;28;19941;-69
2023/11/05 14:16:05;;;;;;;;;;;;;;;;;;4993407;28;19960;-68
2023/11/05 14:18:32;;;;;;;;;;;;;;;;;;4988635;28;20024;-68
2023/11/05 14:20:59;;;;;;;;;;;;;;;;;;4982418;28;20673;-68
2023/11/05 14:23:26;;;;;;;;;;;;;;;;;;4984057;28;20329;-69
2023/11/05 14:25:53;;;;;;;;;;;;;;;;;;4987718;28;19926;-69
2023/11/05 14:28:20;;;;;;;;;;;;;;;;;;4983376;28;19965;-69
2023/11/05 14:30:47;;;;;;;;;;;;;;;;;;4982294;28;19934;-69
2023/11/05 14:33:17;;;;;;;;;;;;;;;;;;4987641;28;20008;-69
2023/11/05 14:35:44;;;;;;;;;;;;;;;;;;4985558;28;19934;-70
2023/11/05 14:38:11;;;;;;;;;;;;;;;;;;4988757;28;19933;-70
2023/11/05 14:40:38;;;;;;;;;;;;;;;;;;4986042;28;20357;-69
2023/11/05 14:43:07;;;;;;;;;;;;;;;;;;4986302;28;20397;-69
2023/11/05 14:45:34;;;;;;;;;;;;;;;;;;4982158;28;19981;-69
2023/11/05 14:48:02;;;;;;;;;;;;;;;;;;4988148;28;20013;-69
2023/11/05 14:50:30;;;;;;;;;;;;;;;;;;4994644;28;19925;-70
2023/11/05 14:52:58;;;;;;;;;;;;;;;;;;4982531;28;19957;-70
2023/11/05 14:55:25;;;;;;;;;;;;;;;;;;4986674;28;20439;-70
2023/11/05 14:57:52;;;;;;;;;;;;;;;;;;4987381;28;19926;-70
2023/11/05 15:00:19;;;;;;;;;;;;;;;;;;4984919;28;20028;-70
2023/11/05 15:02:46;;;;;;;;;;;;;;;;;;4989120;28;19925;-68
2023/11/05 15:05:14;;;;;;;;;;;;;;;;;;4991043;28;19930;-68
2023/11/05 15:07:41;;;;;;;;;;;;;;;;;;4988792;28;19941;-68
2023/11/05 15:10:10;;;;;;;;;;;;;;;;;;4987662;28;20297;-68
2023/11/05 15:12:37;;;;;;;;;;;;;;;;;;4984994;28;19926;-69
2023/11/05 15:15:04;;;;;;;;;;;;;;;;;;4986246;28;19940;-68
2023/11/05 15:17:34;;;;;;;;;;;;;;;;;;4986197;28;19926;-68
2023/11/05 15:20:03;;;;;;;;;;;;;;;;;;4986322;28;20369;-70
2023/11/05 15:22:30;;;;;;;;;;;;;;;;;;4981920;28;20344;-70
2023/11/05 15:24:58;;;;;;;;;;;;;;;;;;4985661;28;19940;-70
2023/11/05 15:27:25;;;;;;;;;;;;;;;;;;4984170;28;19953;-70
2023/11/05 15:29:52;;;;;;;;;;;;;;;;;;4989483;28;19948;-70
2023/11/05 15:32:19;;;;;;;;;;;;;;;;;;4988674;28;19925;-70
2023/11/05 15:34:46;;;;;;;;;;;;;;;;;;4988922;28;19926;-69
2023/11/05 15:37:14;;;;;;;;;;;;;;;;;;4987103;28;19973;-71
2023/11/05 15:39:42;;;;;;;;;;;;;;;;;;4984807;28;19925;-70
2023/11/05 15:42:09;;;;;;;;;;;;;;;;;;4985066;28;19926;-69
2023/11/05 15:44:36;;;;;;;;;;;;;;;;;;4986934;28;19932;-70
2023/11/05 15:47:03;;;;;;;;;;;;;;;;;;4992926;28;19933;-69
2023/11/05 15:49:30;;;;;;;;;;;;;;;;;;4986836;28;19949;-69
2023/11/05 15:51:58;;;;;;;;;;;;;;;;;;4997042;28;19949;-69
2023/11/05 15:54:25;;;;;;;;;;;;;;;;;;4995174;28;19926;-70
2023/11/05 15:56:52;;;;;;;;;;;;;;;;;;4992571;28;19972;-70
2023/11/05 15:59:20;;;;;;;;;;;;;;;;;;4989778;28;19934;-70
2023/11/05 16:01:48;;;;;;;;;;;;;;;;;;4982322;28;20665;-70
2023/11/05 16:04:17;;;;;;;;;;;;;;;;;;4982466;28;19929;-70
2023/11/05 16:06:44;;;;;;;;;;;;;;;;;;4987145;28;19934;-69
2023/11/05 16:09:11;;;;;;;;;;;;;;;;;;4982151;28;20377;-70
2023/11/05 16:11:40;;;;;;;;;;;;;;;;;;4985411;28;20282;-70
2023/11/05 16:14:08;;;;;;;;;;;;;;;;;;4987267;28;20312;-70
2023/11/05 16:16:35;;;;;;;;;;;;;;;;;;4999259;28;19929;-69
2023/11/05 16:19:02;;;;;;;;;;;;;;;;;;4990612;28;20025;-70
2023/11/05 16:21:29;;;;;;;;;;;;;;;;;;4980936;28;19977;-70
2023/11/05 16:23:56;;;;;;;;;;;;;;;;;;4985216;28;19980;-70
2023/11/05 16:26:23;;;;;;;;;;;;;;;;;;4983603;28;20397;-70
2023/11/05 16:28:50;;;;;;;;;;;;;;;;;;4987315;28;20384;-69
2023/11/05 16:31:17;;;;;;;;;;;;;;;;;;4984291;28;20055;-69
2023/11/05 16:33:45;;;;;;;;;;;;;;;;;;4985038;28;20040;-70
2023/11/05 16:36:12;;;;;;;;;;;;;;;;;;4981220;28;19933;-69
2023/11/05 16:38:39;;;;;;;;;;;;;;;;;;4984606;28;19941;-69
2023/11/05 16:41:06;;;;;;;;;;;;;;;;;;4986332;28;20025;-71
2023/11/05 16:43:33;;;;;;;;;;;;;;;;;;4983633;28;19957;-70
2023/11/05 16:46:00;;;;;;;;;;;;;;;;;;4987880;28;20028;-69